Time;durP1;ratioP1;P1;durP2;ratioP2;P2;SDS_P1;SDS_P2;PMS_P1;PMS_P2;Temp;Humidity;BMP_temperature;BMP_pressure;BME280_temperature;BME280_humidity;BME280_pressure;Samples;Min_cycle;Max_cycle;Signal;HPM_P1;HPM_P2
2023/03/01 00:01:39;;;;;;;28.60;18.23;;;0.90;99.90;;;;;;5035454;28;20021;-77
2023/03/01 00:04:05;;;;;;;27.77;18.17;;;0.90;99.90;;;;;;5038505;28;20026;-76
2023/03/01 00:06:30;;;;;;;27.20;17.63;;;1.00;99.90;;;;;;5036536;28;20078;-76
2023/03/01 00:08:56;;;;;;;26.53;17.90;;;0.90;99.90;;;;;;5035983;28;20074;-76
2023/03/01 00:11:25;;;;;;;26.00;17.83;;;0.90;99.90;;;;;;5036950;28;20093;-76
2023/03/01 00:13:54;;;;;;;34.23;18.80;;;0.90;99.90;;;;;;5033664;28;20718;-76
2023/03/01 00:16:23;;;;;;;28.70;18.67;;;0.90;99.90;;;;;;5035032;28;20031;-76
2023/03/01 00:18:50;;;;;;;30.00;18.70;;;0.90;99.90;;;;;;5034120;28;20029;-76
2023/03/01 00:21:16;;;;;;;29.63;18.73;;;0.90;99.90;;;;;;5039214;28;20032;-76
2023/03/01 00:23:42;;;;;;;31.43;18.87;;;0.90;99.90;;;;;;5036802;28;20018;-76
2023/03/01 00:26:10;;;;;;;27.10;17.90;;;0.90;99.90;;;;;;5035443;28;20026;-76
2023/03/01 00:28:36;;;;;;;29.47;19.33;;;0.90;99.90;;;;;;5036425;28;20067;-76
2023/03/01 00:31:04;;;;;;;26.57;17.97;;;0.90;99.90;;;;;;5036944;28;20029;-76
2023/03/01 00:33:30;;;;;;;30.27;17.87;;;0.90;99.90;;;;;;5038149;28;20116;-76
2023/03/01 00:35:58;;;;;;;28.20;19.07;;;0.90;99.90;;;;;;5038653;28;20092;-76
2023/03/01 00:38:24;;;;;;;28.07;17.70;;;0.90;99.90;;;;;;5037397;28;20025;-76
2023/03/01 00:40:49;;;;;;;27.83;17.80;;;0.90;99.90;;;;;;5037264;28;20021;-76
2023/03/01 00:43:15;;;;;;;29.10;17.73;;;0.80;99.90;;;;;;5037898;28;20057;-76
2023/03/01 00:45:40;;;;;;;26.30;17.30;;;0.80;99.90;;;;;;5035107;28;20111;-76
2023/03/01 00:48:06;;;;;;;31.33;17.77;;;0.90;99.90;;;;;;5037034;28;20048;-76
2023/03/01 00:50:32;;;;;;;28.80;18.67;;;0.90;99.90;;;;;;5034880;28;20040;-76
2023/03/01 00:52:57;;;;;;;29.23;17.77;;;0.90;99.90;;;;;;5038464;28;20505;-76
2023/03/01 00:55:23;;;;;;;28.00;18.63;;;0.90;99.90;;;;;;5040059;28;20048;-76
2023/03/01 00:57:49;;;;;;;29.20;18.60;;;0.90;99.90;;;;;;5041615;28;20056;-76
2023/03/01 01:00:15;;;;;;;29.97;18.30;;;0.90;99.90;;;;;;5040840;28;20052;-76
2023/03/01 01:02:40;;;;;;;30.20;18.00;;;0.90;99.90;;;;;;5041099;28;20624;-76
2023/03/01 01:05:06;;;;;;;25.87;17.77;;;0.90;99.90;;;;;;5039515;28;20017;-76
2023/03/01 01:07:32;;;;;;;27.83;18.00;;;0.80;99.90;;;;;;5040019;28;20116;-76
2023/03/01 01:09:58;;;;;;;26.73;17.77;;;0.80;99.90;;;;;;5038693;28;20115;-76
2023/03/01 01:12:23;;;;;;;30.63;18.20;;;0.80;99.90;;;;;;5040576;28;20071;-76
2023/03/01 01:14:49;;;;;;;29.30;18.27;;;0.80;99.90;;;;;;5038635;28;20123;-76
2023/03/01 01:17:14;;;;;;;29.10;18.07;;;0.80;99.90;;;;;;5040068;28;20517;-76
2023/03/01 01:19:40;;;;;;;26.20;17.50;;;0.80;99.90;;;;;;5039965;28;20021;-76
2023/03/01 01:22:05;;;;;;;25.70;17.63;;;0.80;99.90;;;;;;5040092;28;20025;-76
2023/03/01 01:24:31;;;;;;;26.57;17.00;;;0.80;99.90;;;;;;5038818;28;20132;-76
2023/03/01 01:26:57;;;;;;;29.90;17.27;;;0.80;99.90;;;;;;5038794;28;20394;-76
2023/03/01 01:29:22;;;;;;;35.13;18.63;;;0.80;99.90;;;;;;5041157;28;20037;-76
2023/03/01 01:31:48;;;;;;;27.73;17.70;;;0.80;99.90;;;;;;5041519;28;20029;-76
2023/03/01 01:34:19;;;;;;;26.43;17.87;;;0.80;99.90;;;;;;5040922;28;20108;-76
2023/03/01 01:36:49;;;;;;;29.53;17.80;;;0.80;99.90;;;;;;5040961;28;20025;-76
2023/03/01 01:39:15;;;;;;;29.83;18.47;;;0.80;99.90;;;;;;5037202;28;20487;-76
2023/03/01 01:41:42;;;;;;;25.00;17.00;;;0.80;99.90;;;;;;5040049;28;20135;-76
2023/03/01 01:44:12;;;;;;;26.30;17.20;;;0.80;99.90;;;;;;5038929;28;20025;-76
2023/03/01 01:46:47;;;;;;;30.53;18.40;;;0.80;99.90;;;;;;5039062;28;20049;-76
2023/03/01 01:49:35;;;;;;;;;;;0.80;99.90;;;;;;5036356;28;20025;-76
2023/03/01 01:52:16;;;;;;;30.90;17.73;;;0.80;99.90;;;;;;5039137;28;19909;-76
2023/03/01 01:54:54;;;;;;;29.23;18.70;;;0.80;99.90;;;;;;5037829;28;20477;-76
2023/03/01 01:57:23;;;;;;;27.80;17.70;;;0.80;99.90;;;;;;5041191;28;20060;-76
2023/03/01 01:59:54;;;;;;;26.27;17.97;;;0.80;99.90;;;;;;5036949;28;20449;-76
2023/03/01 02:02:20;;;;;;;24.37;16.30;;;0.80;99.90;;;;;;5037052;28;20029;-77
2023/03/01 02:04:49;;;;;;;25.50;17.00;;;0.80;99.90;;;;;;5037363;28;20030;-76
2023/03/01 02:07:18;;;;;;;28.10;17.80;;;0.80;99.90;;;;;;5039472;28;20513;-76
2023/03/01 02:09:47;;;;;;;30.87;18.60;;;0.80;99.90;;;;;;5039183;28;20028;-76
2023/03/01 02:12:16;;;;;;;27.53;16.97;;;0.80;99.90;;;;;;5036942;28;20131;-76
2023/03/01 02:14:42;;;;;;;26.43;17.87;;;0.70;99.90;;;;;;5038152;28;20058;-76
2023/03/01 02:17:08;;;;;;;29.70;18.67;;;0.80;99.90;;;;;;5037397;28;20049;-76
2023/03/01 02:20:02;;;;;;;25.87;17.40;;;0.80;99.90;;;;;;5038333;28;20067;-76
2023/03/01 02:22:32;;;;;;;31.23;18.33;;;0.70;99.90;;;;;;5036036;28;20421;-76
2023/03/01 02:25:19;;;;;;;25.00;17.13;;;0.70;99.90;;;;;;5040544;28;20028;-76
2023/03/01 02:28:13;;;;;;;25.23;15.90;;;0.70;99.90;;;;;;5038622;28;20484;-76
2023/03/01 02:31:41;;;;;;;26.87;17.20;;;0.70;99.90;;;;;;5035766;28;20119;-76
2023/03/01 02:33:32;;;;;;;28.30;17.83;;;0.70;99.90;;;;;;5038139;28;20139;-76
2023/03/01 02:36:00;;;;;;;25.13;16.93;;;0.70;99.90;;;;;;5037953;28;20108;-77
2023/03/01 02:38:27;;;;;;;26.90;17.77;;;0.70;99.90;;;;;;5036574;28;20022;-76
2023/03/01 02:40:56;;;;;;;28.20;16.90;;;0.70;99.90;;;;;;5039192;28;20032;-77
2023/03/01 02:43:27;;;;;;;27.80;17.07;;;0.70;99.90;;;;;;5037233;28;20032;-76
2023/03/01 02:45:58;;;;;;;26.80;16.73;;;0.70;99.90;;;;;;5035791;28;20022;-76
2023/03/01 02:48:24;;;;;;;29.43;17.83;;;0.80;99.90;;;;;;5036578;28;20408;-76
2023/03/01 02:51:03;;;;;;;30.23;16.87;;;0.80;99.90;;;;;;5039553;28;20029;-77
2023/03/01 02:53:35;;;;;;;28.47;17.17;;;0.70;99.90;;;;;;5035682;28;20021;-76
2023/03/01 02:56:01;;;;;;;26.90;17.83;;;0.70;99.90;;;;;;5037221;28;20024;-76
2023/03/01 02:58:27;;;;;;;29.03;17.60;;;0.70;99.90;;;;;;5037093;28;20025;-76
2023/03/01 03:00:52;;;;;;;29.63;17.63;;;0.60;99.90;;;;;;5037802;28;20424;-77
2023/03/01 03:03:21;;;;;;;29.80;17.73;;;0.70;99.90;;;;;;5038639;28;20444;-76
2023/03/01 03:05:48;;;;;;;27.10;17.43;;;0.60;99.90;;;;;;5039783;28;20048;-76
2023/03/01 03:08:16;;;;;;;28.27;17.67;;;0.60;99.90;;;;;;5037712;28;20120;-76
2023/03/01 03:10:42;;;;;;;27.80;17.17;;;0.60;99.90;;;;;;5038476;28;20092;-76
2023/03/01 03:13:13;;;;;;;25.37;17.77;;;0.60;99.90;;;;;;5039793;28;20024;-76
2023/03/01 03:15:41;;;;;;;26.80;17.17;;;0.70;99.90;;;;;;5039650;28;20034;-76
2023/03/01 03:18:10;;;;;;;25.07;17.23;;;0.60;99.90;;;;;;5038333;28;20108;-76
2023/03/01 03:20:39;;;;;;;29.13;17.17;;;0.60;99.90;;;;;;5036490;28;20047;-76
2023/03/01 03:23:05;;;;;;;28.27;17.80;;;0.50;99.90;;;;;;5038053;28;20021;-76
2023/03/01 03:25:30;;;;;;;30.77;18.23;;;0.50;99.90;;;;;;5040081;28;20033;-76
2023/03/01 03:27:57;;;;;;;27.13;17.47;;;0.60;99.90;;;;;;5037713;28;20033;-76
2023/03/01 03:30:26;;;;;;;27.27;17.63;;;0.50;99.90;;;;;;5039427;28;20047;-76
2023/03/01 03:32:52;;;;;;;26.97;18.03;;;0.60;99.90;;;;;;5037377;28;20466;-76
2023/03/01 03:35:26;;;;;;;26.37;17.73;;;0.60;99.90;;;;;;5040687;28;20021;-76
2023/03/01 03:38:01;;;;;;;25.40;16.60;;;0.50;99.90;;;;;;5034484;28;20025;-76
2023/03/01 03:40:32;;;;;;;27.17;17.87;;;0.50;99.90;;;;;;5035830;28;20055;-76
2023/03/01 03:42:58;;;;;;;26.83;18.40;;;0.50;99.90;;;;;;5038253;28;20028;-76
2023/03/01 03:45:24;;;;;;;29.70;17.80;;;0.50;99.90;;;;;;5039178;28;20021;-76
2023/03/01 03:47:49;;;;;;;26.27;18.50;;;0.40;99.90;;;;;;5038149;28;20107;-76
2023/03/01 03:50:17;;;;;;;28.03;18.37;;;0.50;99.90;;;;;;5037450;28;20032;-76
2023/03/01 03:52:43;;;;;;;25.30;17.90;;;0.50;99.90;;;;;;5035317;28;20044;-76
2023/03/01 03:55:10;;;;;;;28.03;18.43;;;0.40;99.90;;;;;;5035764;28;20505;-76
2023/03/01 03:57:41;;;;;;;25.27;16.87;;;0.40;99.90;;;;;;5034392;28;20021;-76
2023/03/01 04:00:12;;;;;;;28.70;18.97;;;0.40;99.90;;;;;;5037442;28;20021;-76
2023/03/01 04:02:41;;;;;;;27.50;18.17;;;0.40;99.90;;;;;;5034602;28;20021;-76
2023/03/01 04:05:08;;;;;;;29.40;17.77;;;0.50;99.90;;;;;;5038502;28;20013;-76
2023/03/01 04:07:35;;;;;;;30.50;18.33;;;0.50;99.90;;;;;;5035342;28;20025;-76
2023/03/01 04:10:03;;;;;;;28.63;18.20;;;0.40;99.90;;;;;;5036531;28;20021;-76
2023/03/01 04:12:28;;;;;;;27.80;18.30;;;0.40;99.90;;;;;;5036492;28;20021;-76
2023/03/01 04:14:54;;;;;;;27.10;18.67;;;0.40;99.90;;;;;;5036427;28;20113;-76
2023/03/01 04:17:19;;;;;;;27.77;18.20;;;0.30;99.90;;;;;;5033961;28;20079;-76
2023/03/01 04:19:48;;;;;;;26.67;18.03;;;0.40;99.90;;;;;;5035636;28;20025;-76
2023/03/01 04:22:17;;;;;;;26.80;18.20;;;0.30;99.90;;;;;;5036516;28;20099;-76
2023/03/01 04:24:43;;;;;;;32.80;19.67;;;0.30;99.90;;;;;;5036567;28;20030;-76
2023/03/01 04:27:08;;;;;;;28.67;18.90;;;0.30;99.90;;;;;;5035668;28;20053;-76
2023/03/01 04:29:34;;;;;;;28.30;18.10;;;0.20;99.90;;;;;;5041030;28;20064;-76
2023/03/01 04:32:00;;;;;;;27.77;17.30;;;0.20;99.90;;;;;;5039244;28;20045;-76
2023/03/01 04:34:26;;;;;;;33.13;19.17;;;0.20;99.90;;;;;;5040696;28;20029;-76
2023/03/01 04:36:52;;;;;;;28.37;18.70;;;0.20;99.90;;;;;;5039808;28;20408;-76
2023/03/01 04:39:18;;;;;;;24.97;17.17;;;0.20;99.90;;;;;;5037877;28;20041;-76
2023/03/01 04:41:43;;;;;;;27.23;17.93;;;0.20;99.90;;;;;;5039425;28;20025;-76
2023/03/01 04:44:09;;;;;;;28.63;19.37;;;0.10;99.90;;;;;;5041726;28;20028;-76
2023/03/01 04:46:36;;;;;;;28.73;18.93;;;0.10;99.90;;;;;;5039681;28;20431;-76
2023/03/01 04:49:02;;;;;;;25.07;17.70;;;0.10;99.90;;;;;;5040574;28;20192;-76
2023/03/01 04:51:28;;;;;;;29.10;19.17;;;0.10;99.90;;;;;;5039694;28;20029;-76
2023/03/01 04:53:54;;;;;;;27.37;18.40;;;0.10;99.90;;;;;;5040618;28;20032;-76
2023/03/01 04:56:22;;;;;;;29.33;18.50;;;0.10;99.90;;;;;;5041511;28;20426;-76
2023/03/01 04:58:48;;;;;;;30.60;16.87;;;0.00;99.90;;;;;;5040015;28;20512;-76
2023/03/01 05:01:16;;;;;;;34.37;18.97;;;0.00;99.90;;;;;;5039127;28;20021;-77
2023/03/01 05:03:44;;;;;;;27.97;17.57;;;0.00;99.90;;;;;;5036610;28;20101;-76
2023/03/01 05:06:10;;;;;;;26.83;17.13;;;0.00;99.90;;;;;;5039337;28;20150;-76
2023/03/01 05:08:37;;;;;;;30.63;18.27;;;0.00;99.90;;;;;;5038477;28;20565;-76
2023/03/01 05:11:02;;;;;;;28.23;18.43;;;-0.10;99.90;;;;;;5041193;28;20100;-76
2023/03/01 05:13:29;;;;;;;36.33;19.37;;;-0.10;99.90;;;;;;5038880;28;20118;-77
2023/03/01 05:15:56;;;;;;;30.60;19.57;;;-0.10;99.90;;;;;;5032835;28;21445;-77
2023/03/01 05:18:25;;;;;;;27.93;18.10;;;-0.20;99.90;;;;;;5039643;28;20036;-77
2023/03/01 05:20:51;;;;;;;26.50;17.63;;;-0.30;99.90;;;;;;5037918;28;20017;-76
2023/03/01 05:23:18;;;;;;;28.53;18.77;;;-0.30;99.90;;;;;;5040340;28;20041;-76
2023/03/01 05:25:44;;;;;;;31.97;19.70;;;-0.30;99.90;;;;;;5038747;28;20024;-76
2023/03/01 05:28:13;;;;;;;30.10;19.53;;;-0.40;99.90;;;;;;5041977;28;20034;-76
2023/03/01 05:30:39;;;;;;;41.97;25.27;;;-0.40;99.90;;;;;;5041085;28;20021;-76
2023/03/01 05:33:10;;;;;;;49.63;29.93;;;-0.40;99.90;;;;;;5040127;28;20373;-76
2023/03/01 05:35:35;;;;;;;36.93;22.83;;;-0.40;99.90;;;;;;5036393;28;20100;-78
2023/03/01 05:38:01;;;;;;;29.67;18.53;;;-0.40;99.90;;;;;;5033661;28;20481;-78
2023/03/01 05:40:27;;;;;;;32.43;20.17;;;-0.40;99.90;;;;;;5037154;28;20100;-78
2023/03/01 05:42:56;;;;;;;27.83;19.43;;;-0.40;99.90;;;;;;5034687;28;20029;-78
2023/03/01 05:45:24;;;;;;;32.77;20.37;;;-0.40;99.90;;;;;;5035930;28;20481;-77
2023/03/01 05:47:51;;;;;;;36.60;21.37;;;-0.50;99.90;;;;;;5036240;28;20048;-77
2023/03/01 05:50:25;;;;;;;36.67;22.57;;;-0.50;99.90;;;;;;5033715;28;20032;-78
2023/03/01 05:53:04;;;;;;;34.17;20.50;;;-0.50;99.90;;;;;;5035196;28;20378;-80
2023/03/01 05:55:30;;;;;;;37.47;23.03;;;-0.50;99.90;;;;;;5036751;28;20034;-77
2023/03/01 05:57:59;;;;;;;32.37;20.77;;;-0.60;99.90;;;;;;5036418;28;20067;-77
2023/03/01 06:00:25;;;;;;;31.00;19.73;;;-0.60;99.90;;;;;;5025466;28;20025;-79
2023/03/01 06:02:51;;;;;;;32.73;19.57;;;-0.60;99.90;;;;;;5031954;28;20485;-79
2023/03/01 06:05:21;;;;;;;34.97;19.37;;;-0.60;99.90;;;;;;5032013;28;20104;-80
2023/03/01 06:07:47;;;;;;;37.17;20.53;;;-0.60;99.90;;;;;;5037652;28;20018;-80
2023/03/01 06:10:14;;;;;;;28.23;17.30;;;-0.60;99.90;;;;;;5040706;28;20393;-80
2023/03/01 06:12:41;;;;;;;29.53;17.93;;;-0.60;99.90;;;;;;5036492;28;20088;-80
2023/03/01 06:15:09;;;;;;;32.37;19.53;;;-0.40;99.90;;;;;;5034765;28;20029;-80
2023/03/01 06:17:37;;;;;;;34.30;20.50;;;-0.50;99.90;;;;;;5029449;28;20112;-80
2023/03/01 06:20:05;;;;;;;39.90;19.43;;;-0.60;99.90;;;;;;5029790;28;20021;-77
2023/03/01 06:22:30;;;;;;;32.40;20.47;;;-0.50;99.90;;;;;;5034034;28;20028;-77
2023/03/01 06:24:56;;;;;;;32.80;19.07;;;-0.50;99.90;;;;;;5039771;28;20029;-77
2023/03/01 06:27:21;;;;;;;35.13;19.67;;;-0.50;99.90;;;;;;5037525;28;20029;-77
2023/03/01 06:29:47;;;;;;;37.73;20.27;;;-0.50;99.90;;;;;;5033962;28;20102;-77
2023/03/01 06:32:12;;;;;;;34.40;18.50;;;-0.50;99.90;;;;;;5033519;28;20028;-77
2023/03/01 06:34:40;;;;;;;32.03;19.73;;;-0.40;99.90;;;;;;5034053;28;20034;-77
2023/03/01 06:37:07;;;;;;;38.47;20.43;;;-0.40;99.90;;;;;;5034835;28;20819;-77
2023/03/01 06:39:33;;;;;;;34.53;20.00;;;-0.50;99.90;;;;;;5036177;28;20106;-77
2023/03/01 06:41:59;;;;;;;31.63;18.63;;;-0.50;99.90;;;;;;5032371;28;20036;-77
2023/03/01 06:44:24;;;;;;;31.53;19.83;;;-0.50;99.90;;;;;;5031181;28;20037;-77
2023/03/01 06:46:50;;;;;;;35.37;19.03;;;-0.50;99.90;;;;;;5037501;28;20123;-77
2023/03/01 06:49:17;;;;;;;31.07;19.00;;;-0.50;99.90;;;;;;5032591;28;20542;-77
2023/03/01 06:51:43;;;;;;;30.93;19.03;;;-0.40;99.90;;;;;;5033662;28;20013;-78
2023/03/01 06:54:09;;;;;;;34.73;21.17;;;-0.50;99.90;;;;;;5021815;28;20037;-78
2023/03/01 06:56:35;;;;;;;36.23;19.70;;;-0.50;99.90;;;;;;5025306;28;20029;-78
2023/03/01 06:59:02;;;;;;;31.67;18.87;;;-0.50;99.90;;;;;;5024909;28;20138;-78
2023/03/01 07:01:28;;;;;;;33.03;20.83;;;-0.40;99.90;;;;;;5023679;28;20021;-77
2023/03/01 07:03:54;;;;;;;31.53;18.80;;;-0.40;99.90;;;;;;5024401;28;20022;-74
2023/03/01 07:06:20;;;;;;;32.77;20.17;;;-0.40;99.90;;;;;;5023451;28;20490;-75
2023/03/01 07:08:46;;;;;;;31.53;18.53;;;-0.40;99.90;;;;;;5023252;28;20029;-75
2023/03/01 07:11:12;;;;;;;29.93;19.30;;;-0.30;99.90;;;;;;5026534;28;20040;-77
2023/03/01 07:13:38;;;;;;;33.07;18.30;;;-0.30;99.90;;;;;;5022729;28;20434;-77
2023/03/01 07:16:03;;;;;;;30.10;19.43;;;-0.30;99.90;;;;;;5020860;28;20025;-74
2023/03/01 07:18:29;;;;;;;38.17;19.87;;;-0.30;99.90;;;;;;5023119;28;20029;-75
2023/03/01 07:20:55;;;;;;;30.83;18.77;;;-0.20;99.90;;;;;;5027034;28;20025;-74
2023/03/01 07:23:20;;;;;;;31.67;19.27;;;-0.30;99.90;;;;;;5026167;28;20112;-75
2023/03/01 07:25:54;;;;;;;33.07;19.73;;;-0.30;99.90;;;;;;5030646;28;20037;-74
2023/03/01 07:28:22;;;;;;;31.03;19.73;;;-0.30;99.90;;;;;;5033118;28;20057;-74
2023/03/01 07:30:48;;;;;;;28.80;19.03;;;-0.20;99.90;;;;;;5034274;28;20031;-74
2023/03/01 07:33:13;;;;;;;41.10;23.77;;;-0.30;99.90;;;;;;5035444;28;20026;-74
2023/03/01 07:35:39;;;;;;;83.70;38.90;;;-0.20;99.90;;;;;;5029128;28;20064;-74
2023/03/01 07:38:05;;;;;;;51.87;27.80;;;-0.20;99.90;;;;;;5033101;28;20041;-74
2023/03/01 07:40:33;;;;;;;50.77;26.50;;;-0.30;99.90;;;;;;5036956;28;20099;-76
2023/03/01 07:43:01;;;;;;;46.40;25.80;;;-0.30;99.90;;;;;;5033568;28;20025;-76
2023/03/01 07:45:27;;;;;;;31.60;20.03;;;-0.20;99.90;;;;;;5036023;28;20028;-77
2023/03/01 07:47:53;;;;;;;29.13;18.47;;;-0.20;99.90;;;;;;5029746;28;20041;-76
2023/03/01 07:50:19;;;;;;;35.20;21.50;;;-0.20;99.90;;;;;;5030961;28;20052;-77
2023/03/01 07:52:46;;;;;;;34.17;19.60;;;-0.20;99.90;;;;;;5030136;28;20025;-76
2023/03/01 07:55:12;;;;;;;32.30;19.83;;;-0.10;99.90;;;;;;5035371;28;20119;-77
2023/03/01 07:57:38;;;;;;;33.53;19.03;;;0.00;99.90;;;;;;5030328;28;20025;-76
2023/03/01 08:00:05;;;;;;;35.13;20.00;;;0.00;99.90;;;;;;5031398;28;20025;-76
2023/03/01 08:02:31;;;;;;;33.37;20.80;;;0.00;99.90;;;;;;5030780;28;20648;-76
2023/03/01 08:04:56;;;;;;;33.23;19.43;;;0.00;99.90;;;;;;5034558;28;20036;-77
2023/03/01 08:07:22;;;;;;;34.53;21.07;;;0.10;99.90;;;;;;5032595;28;20060;-76
2023/03/01 08:09:47;;;;;;;33.20;20.43;;;0.10;99.90;;;;;;5032775;28;20037;-77
2023/03/01 08:12:13;;;;;;;33.43;20.47;;;0.20;99.90;;;;;;5030390;28;20428;-76
2023/03/01 08:14:39;;;;;;;31.17;18.63;;;0.20;99.90;;;;;;5030671;28;20411;-77
2023/03/01 08:17:04;;;;;;;34.37;19.20;;;0.30;99.90;;;;;;5034831;28;20021;-76
2023/03/01 08:19:30;;;;;;;40.03;21.47;;;0.40;99.90;;;;;;5035171;28;20026;-76
2023/03/01 08:21:57;;;;;;;31.60;19.53;;;0.30;99.90;;;;;;5033773;28;20052;-76
2023/03/01 08:24:23;;;;;;;34.50;20.43;;;0.40;99.90;;;;;;5029738;28;20030;-76
2023/03/01 08:26:49;;;;;;;32.03;19.93;;;0.40;99.90;;;;;;5044587;28;20044;-77
2023/03/01 08:29:15;;;;;;;38.17;20.40;;;0.50;99.90;;;;;;5031820;28;20026;-76
2023/03/01 08:31:40;;;;;;;30.67;19.43;;;0.50;99.90;;;;;;5030259;28;20048;-76
2023/03/01 08:34:12;;;;;;;31.43;20.13;;;0.50;99.90;;;;;;5027116;28;20033;-76
2023/03/01 08:36:40;;;;;;;32.67;19.57;;;0.60;99.90;;;;;;5034828;28;20017;-76
2023/03/01 08:39:08;;;;;;;34.43;20.03;;;0.60;99.90;;;;;;5031968;28;20017;-76
2023/03/01 08:41:33;;;;;;;33.57;20.67;;;0.70;99.90;;;;;;5029262;28;20382;-76
2023/03/01 08:43:59;;;;;;;35.33;20.10;;;0.80;99.90;;;;;;5030071;28;20038;-77
2023/03/01 08:46:36;;;;;;;32.93;20.20;;;0.80;99.90;;;;;;5029973;28;20037;-77
2023/03/01 08:49:07;;;;;;;33.97;19.23;;;0.80;99.90;;;;;;5031776;28;20022;-76
2023/03/01 08:51:36;;;;;;;34.63;20.43;;;0.90;99.90;;;;;;5031460;28;20037;-76
2023/03/01 08:54:06;;;;;;;32.90;20.30;;;0.90;99.90;;;;;;5032903;28;20382;-76
2023/03/01 08:56:32;;;;;;;32.43;20.17;;;0.90;99.90;;;;;;5033241;28;20036;-77
2023/03/01 08:58:58;;;;;;;31.10;20.60;;;1.00;99.90;;;;;;5036961;28;20029;-77
2023/03/01 09:01:23;;;;;;;32.53;20.60;;;1.00;99.90;;;;;;5029750;28;20044;-76
2023/03/01 09:03:49;;;;;;;34.27;20.73;;;1.10;99.90;;;;;;5030564;28;20048;-77
2023/03/01 09:06:15;;;;;;;30.97;19.27;;;1.20;99.90;;;;;;5030460;28;20021;-76
2023/03/01 09:08:44;;;;;;;36.00;17.87;;;1.20;99.90;;;;;;5033046;28;20056;-76
2023/03/01 09:11:11;;;;;;;31.43;19.53;;;1.30;99.90;;;;;;5034591;28;20080;-76
2023/03/01 09:13:37;;;;;;;35.07;20.27;;;1.30;99.90;;;;;;5030675;28;20082;-76
2023/03/01 09:16:04;;;;;;;33.47;19.57;;;1.30;99.90;;;;;;5035920;28;20025;-76
2023/03/01 09:18:31;;;;;;;37.23;23.00;;;1.30;99.90;;;;;;5035766;28;20014;-76
2023/03/01 09:21:06;;;;;;;34.43;20.10;;;1.40;99.90;;;;;;5032815;28;20645;-76
2023/03/01 09:23:34;;;;;;;33.37;19.97;;;1.40;99.90;;;;;;5036507;28;20120;-76
2023/03/01 09:25:59;;;;;;;31.47;19.70;;;1.40;99.90;;;;;;5033839;28;20033;-76
2023/03/01 09:28:25;;;;;;;32.77;19.50;;;1.40;99.90;;;;;;5035358;28;20032;-77
2023/03/01 09:30:50;;;;;;;36.17;19.90;;;1.40;99.90;;;;;;5036601;28;20370;-76
2023/03/01 09:33:16;;;;;;;33.73;20.63;;;1.40;99.90;;;;;;5039252;28;20824;-77
2023/03/01 09:35:45;;;;;;;34.53;20.40;;;1.40;99.90;;;;;;5038655;28;20088;-76
2023/03/01 09:38:12;;;;;;;34.43;19.93;;;1.40;99.90;;;;;;5039064;28;20025;-76
2023/03/01 09:40:42;;;;;;;33.07;20.13;;;1.40;99.90;;;;;;5033695;28;20478;-76
2023/03/01 09:43:20;;;;;;;32.83;20.00;;;1.50;99.90;;;;;;5032273;28;20104;-77
2023/03/01 09:45:48;;;;;;;41.60;19.67;;;1.50;99.90;;;;;;5036180;28;20416;-76
2023/03/01 09:48:18;;;;;;;33.57;19.17;;;1.50;99.90;;;;;;5033992;28;20045;-77
2023/03/01 09:50:46;;;;;;;34.30;20.33;;;1.60;99.90;;;;;;5040889;28;20021;-76
2023/03/01 09:53:21;;;;;;;35.43;20.83;;;1.70;99.90;;;;;;5042663;28;20492;-76
2023/03/01 09:56:01;;;;;;;39.80;21.20;;;1.70;99.90;;;;;;5037897;28;20083;-76
2023/03/01 09:58:52;;;;;;;36.87;22.73;;;1.70;99.90;;;;;;5033602;28;20082;-76
2023/03/01 10:01:34;;;;;;;36.73;23.93;;;1.80;99.90;;;;;;5031576;28;20038;-77
2023/03/01 10:04:25;;;;;;;31.57;19.97;;;1.90;99.90;;;;;;5032260;28;20025;-76
2023/03/01 10:07:10;;;;;;;36.33;19.50;;;2.00;99.90;;;;;;5031162;28;20024;-76
2023/03/01 10:09:37;;;;;;;;;;;2.00;99.90;;;;;;5031978;28;20043;-74
2023/03/01 10:12:09;;;;;;;40.00;25.27;;;2.10;99.90;;;;;;5033071;28;19974;-75
2023/03/01 10:14:46;;;;;;;31.60;21.37;;;2.10;99.90;;;;;;5034100;28;20092;-75
2023/03/01 10:17:37;;;;;;;46.97;28.43;;;2.20;99.90;;;;;;5033699;28;20031;-75
2023/03/01 10:20:25;;;;;;;33.13;21.80;;;2.10;99.90;;;;;;5034135;28;20029;-74
2023/03/01 10:22:52;;;;;;;37.70;23.90;;;2.10;99.90;;;;;;5035173;28;20105;-74
2023/03/01 10:25:35;;;;;;;36.43;23.20;;;2.10;99.90;;;;;;5030476;28;20120;-75
2023/03/01 10:28:15;;;;;;;38.90;22.37;;;2.10;99.90;;;;;;5034151;28;20046;-74
2023/03/01 10:30:43;;;;;;;35.33;20.43;;;2.20;99.90;;;;;;5032927;28;20021;-74
2023/03/01 10:33:17;;;;;;;33.40;19.63;;;2.10;99.90;;;;;;5034061;28;20025;-75
2023/03/01 10:35:42;;;;;;;37.07;22.57;;;2.20;99.90;;;;;;5034678;28;20033;-74
2023/03/01 10:38:13;;;;;;;35.30;22.40;;;2.30;99.90;;;;;;5034774;28;20043;-75
2023/03/01 10:41:07;;;;;;;34.77;21.13;;;2.50;99.90;;;;;;5033793;28;20029;-74
2023/03/01 10:43:57;;;;;;;33.33;20.73;;;2.60;99.90;;;;;;5033044;28;20465;-74
2023/03/01 10:46:26;;;;;;;44.63;24.57;;;2.90;99.90;;;;;;5035393;28;20110;-75
2023/03/01 10:49:17;;;;;;;36.03;21.63;;;3.20;99.90;;;;;;5034733;28;20018;-75
2023/03/01 10:51:46;;;;;;;36.83;22.07;;;3.60;99.90;;;;;;5032243;28;20409;-75
2023/03/01 10:54:33;;;;;;;44.13;24.07;;;3.70;99.90;;;;;;5033053;28;20523;-75
2023/03/01 10:57:02;;;;;;;43.63;23.10;;;3.80;99.90;;;;;;5035137;28;20086;-75
2023/03/01 10:59:38;;;;;;;35.93;21.27;;;3.90;99.90;;;;;;5031649;28;20124;-74
2023/03/01 11:02:32;;;;;;;45.97;22.83;;;4.00;99.90;;;;;;5030197;28;20385;-74
2023/03/01 11:05:02;;;;;;;42.70;22.73;;;4.00;99.90;;;;;;5032820;28;20716;-75
2023/03/01 11:07:28;;;;;;;31.70;20.97;;;4.30;99.90;;;;;;5033408;28;20107;-74
2023/03/01 11:09:54;;;;;;;29.53;20.37;;;4.30;99.90;;;;;;5033843;28;20029;-74
2023/03/01 11:12:21;;;;;;;32.90;21.17;;;4.50;99.90;;;;;;5029819;28;20033;-74
2023/03/01 11:14:52;;;;;;;29.97;19.83;;;4.60;99.90;;;;;;5031656;28;20040;-75
2023/03/01 11:17:25;;;;;;;34.53;22.97;;;4.60;99.90;;;;;;5032956;28;20032;-75
2023/03/01 11:20:12;;;;;;;33.33;21.80;;;4.60;99.90;;;;;;5033269;28;20075;-74
2023/03/01 11:22:46;;;;;;;32.23;21.27;;;4.90;99.90;;;;;;5031952;28;20041;-75
2023/03/01 11:25:14;;;;;;;31.87;21.40;;;5.00;99.90;;;;;;5032415;28;20478;-75
2023/03/01 11:27:48;;;;;;;33.00;21.77;;;5.10;99.90;;;;;;5032975;28;20033;-75
2023/03/01 11:30:35;;;;;;;34.30;22.30;;;5.10;99.90;;;;;;5033218;28;20025;-75
2023/03/01 11:33:17;;;;;;;35.73;21.80;;;5.20;99.90;;;;;;5032758;28;20021;-75
2023/03/01 11:35:53;;;;;;;30.10;19.93;;;5.30;99.90;;;;;;5034540;28;20029;-74
2023/03/01 11:38:22;;;;;;;32.97;21.73;;;5.50;99.90;;;;;;5033681;28;20044;-75
2023/03/01 11:41:02;;;;;;;34.00;21.13;;;5.50;99.90;;;;;;5035040;28;20111;-75
2023/03/01 11:43:46;;;;;;;33.77;21.77;;;5.70;99.90;;;;;;5035227;28;20784;-75
2023/03/01 11:46:31;;;;;;;30.57;20.97;;;5.70;99.90;;;;;;5033595;28;20021;-75
2023/03/01 11:49:15;;;;;;;34.15;22.88;;;5.70;99.90;;;;;;5031332;28;20025;-74
2023/03/01 11:51:46;;;;;;;30.67;20.33;;;5.60;99.90;;;;;;5025786;28;20021;-75
2023/03/01 11:54:53;;;;;;;32.00;21.73;;;5.50;99.90;;;;;;5034830;28;20025;-75
2023/03/01 11:57:51;;;;;;;33.10;21.47;;;5.40;99.90;;;;;;5031617;28;20040;-74
2023/03/01 12:00:44;;;;;;;34.90;21.33;;;5.70;99.90;;;;;;5036108;28;20896;-75
2023/03/01 12:03:39;;;;;;;35.03;22.57;;;5.80;99.90;;;;;;5033376;28;20017;-75
2023/03/01 12:06:37;;;;;;;33.07;21.67;;;5.70;99.90;;;;;;5030305;28;20114;-75
2023/03/01 12:09:22;;;;;;;33.73;21.57;;;5.80;99.90;;;;;;5032725;28;20026;-75
2023/03/01 12:12:09;;;;;;;28.80;20.07;;;5.90;99.90;;;;;;5030374;28;20370;-75
2023/03/01 12:15:04;;;;;;;31.63;20.63;;;5.80;99.90;;;;;;5031901;28;20038;-75
2023/03/01 12:18:08;;;;;;;29.10;20.17;;;5.70;99.90;;;;;;4979294;28;20193;-75
2023/03/01 12:21:02;;;;;;;29.63;20.03;;;5.90;99.90;;;;;;5032857;28;20432;-75
2023/03/01 12:23:33;;;;;;;32.73;22.80;;;6.10;99.90;;;;;;5035174;28;20138;-75
2023/03/01 12:26:12;;;;;;;28.20;19.47;;;6.30;99.90;;;;;;5033200;28;20031;-75
2023/03/01 12:29:01;;;;;;;33.37;22.63;;;6.30;99.90;;;;;;5035800;28;20123;-75
2023/03/01 12:31:47;;;;;;;31.57;21.43;;;6.30;99.90;;;;;;5033921;28;20017;-74
2023/03/01 12:34:50;;;;;;;34.60;23.10;;;6.20;99.90;;;;;;5030865;28;20028;-74
2023/03/01 12:37:36;;;;;;;64.03;32.77;;;6.10;99.90;;;;;;5029297;28;20025;-74
2023/03/01 12:40:30;;;;;;;41.40;25.90;;;6.40;99.90;;;;;;5036833;28;20017;-75
2023/03/01 12:43:25;;;;;;;66.27;33.00;;;6.40;99.90;;;;;;5035434;28;20021;-74
2023/03/01 12:46:15;;;;;;;120.10;54.65;;;6.50;99.90;;;;;;5024073;28;20445;-75
2023/03/01 12:49:04;;;;;;;109.17;51.03;;;6.40;99.90;;;;;;5036281;28;20486;-75
2023/03/01 12:51:35;;;;;;;34.27;24.10;;;6.20;99.90;;;;;;5035389;28;20018;-75
2023/03/01 12:54:14;;;;;;;30.53;19.33;;;6.10;99.90;;;;;;5029986;28;20385;-74